sensor_id;sensor_type;location;lat;lon;timestamp;P1;durP1;ratioP1;P2;durP2;ratioP2
6665;SDS011;3369;49.906;8.598;2022-10-28T00:01:12;7.87;;;5.00;;
6665;SDS011;3369;49.906;8.598;2022-10-28T00:03:40;13.50;;;7.40;;
6665;SDS011;3369;49.906;8.598;2022-10-28T00:06:11;8.50;;;6.07;;
6665;SDS011;3369;49.906;8.598;2022-10-28T00:08:39;8.87;;;6.03;;
6665;SDS011;3369;49.906;8.598;2022-10-28T00:11:06;7.70;;;5.50;;
6665;SDS011;3369;49.906;8.598;2022-10-28T00:13:38;6.33;;;4.90;;
6665;SDS011;3369;49.906;8.598;2022-10-28T00:16:05;5.57;;;4.90;;
6665;SDS011;3369;49.906;8.598;2022-10-28T00:18:39;5.17;;;4.20;;
6665;SDS011;3369;49.906;8.598;2022-10-28T00:21:07;5.23;;;4.20;;
6665;SDS011;3369;49.906;8.598;2022-10-28T00:23:35;4.17;;;3.77;;
6665;SDS011;3369;49.906;8.598;2022-10-28T00:26:05;6.10;;;4.43;;
6665;SDS011;3369;49.906;8.598;2022-10-28T00:28:38;6.40;;;4.40;;
6665;SDS011;3369;49.906;8.598;2022-10-28T00:31:06;5.63;;;4.17;;
6665;SDS011;3369;49.906;8.598;2022-10-28T00:33:32;4.67;;;3.80;;
6665;SDS011;3369;49.906;8.598;2022-10-28T00:36:08;5.43;;;3.87;;
6665;SDS011;3369;49.906;8.598;2022-10-28T00:38:42;6.43;;;3.97;;
6665;SDS011;3369;49.906;8.598;2022-10-28T00:41:09;4.10;;;3.20;;
6665;SDS011;3369;49.906;8.598;2022-10-28T00:43:38;3.77;;;3.27;;
6665;SDS011;3369;49.906;8.598;2022-10-28T00:46:11;4.73;;;3.67;;
6665;SDS011;3369;49.906;8.598;2022-10-28T00:48:54;4.40;;;4.00;;
6665;SDS011;3369;49.906;8.598;2022-10-28T00:51:24;4.07;;;3.30;;
6665;SDS011;3369;49.906;8.598;2022-10-28T00:53:51;4.53;;;3.50;;
6665;SDS011;3369;49.906;8.598;2022-10-28T00:56:20;4.20;;;3.80;;
6665;SDS011;3369;49.906;8.598;2022-10-28T00:58:48;4.10;;;3.70;;
6665;SDS011;3369;49.906;8.598;2022-10-28T01:01:15;5.40;;;3.60;;
6665;SDS011;3369;49.906;8.598;2022-10-28T01:03:41;4.03;;;3.63;;
6665;SDS011;3369;49.906;8.598;2022-10-28T01:06:06;4.07;;;3.40;;
6665;SDS011;3369;49.906;8.598;2022-10-28T01:08:32;7.43;;;4.17;;
6665;SDS011;3369;49.906;8.598;2022-10-28T01:11:11;5.27;;;4.40;;
6665;SDS011;3369;49.906;8.598;2022-10-28T01:13:54;7.20;;;4.63;;
6665;SDS011;3369;49.906;8.598;2022-10-28T01:22:24;9.27;;;6.40;;
6665;SDS011;3369;49.906;8.598;2022-10-28T01:28:17;9.03;;;5.37;;
6665;SDS011;3369;49.906;8.598;2022-10-28T01:30:25;6.50;;;4.43;;
6665;SDS011;3369;49.906;8.598;2022-10-28T01:35:48;6.97;;;4.80;;
6665;SDS011;3369;49.906;8.598;2022-10-28T01:38:28;6.87;;;4.17;;
6665;SDS011;3369;49.906;8.598;2022-10-28T01:41:14;8.77;;;4.60;;
6665;SDS011;3369;49.906;8.598;2022-10-28T01:44:06;6.23;;;4.57;;
6665;SDS011;3369;49.906;8.598;2022-10-28T01:46:39;5.50;;;4.53;;
6665;SDS011;3369;49.906;8.598;2022-10-28T01:51:57;5.47;;;4.30;;
6665;SDS011;3369;49.906;8.598;2022-10-28T01:54:28;5.80;;;3.87;;
6665;SDS011;3369;49.906;8.598;2022-10-28T01:56:57;5.03;;;4.53;;
6665;SDS011;3369;49.906;8.598;2022-10-28T01:59:27;7.87;;;4.80;;
6665;SDS011;3369;49.906;8.598;2022-10-28T02:01:54;4.67;;;3.93;;
6665;SDS011;3369;49.906;8.598;2022-10-28T02:04:20;4.80;;;3.83;;
6665;SDS011;3369;49.906;8.598;2022-10-28T02:06:47;4.57;;;3.47;;
6665;SDS011;3369;49.906;8.598;2022-10-28T02:10:00;4.60;;;3.60;;
6665;SDS011;3369;49.906;8.598;2022-10-28T02:12:32;4.87;;;3.60;;
6665;SDS011;3369;49.906;8.598;2022-10-28T02:39:09;6.77;;;4.33;;
6665;SDS011;3369;49.906;8.598;2022-10-28T02:41:37;4.67;;;4.13;;
6665;SDS011;3369;49.906;8.598;2022-10-28T02:44:11;4.90;;;4.20;;
6665;SDS011;3369;49.906;8.598;2022-10-28T02:46:41;4.37;;;3.83;;
6665;SDS011;3369;49.906;8.598;2022-10-28T02:49:09;4.67;;;4.17;;
6665;SDS011;3369;49.906;8.598;2022-10-28T02:51:44;4.70;;;3.87;;
6665;SDS011;3369;49.906;8.598;2022-10-28T02:54:16;5.83;;;3.50;;
6665;SDS011;3369;49.906;8.598;2022-10-28T02:59:15;4.60;;;3.63;;
6665;SDS011;3369;49.906;8.598;2022-10-28T03:01:40;5.03;;;3.77;;
6665;SDS011;3369;49.906;8.598;2022-10-28T03:04:06;3.50;;;3.20;;
6665;SDS011;3369;49.906;8.598;2022-10-28T03:06:32;5.47;;;3.93;;
6665;SDS011;3369;49.906;8.598;2022-10-28T03:08:58;6.67;;;4.30;;
6665;SDS011;3369;49.906;8.598;2022-10-28T03:11:23;8.40;;;4.33;;
6665;SDS011;3369;49.906;8.598;2022-10-28T03:13:49;6.37;;;4.57;;
6665;SDS011;3369;49.906;8.598;2022-10-28T03:16:14;7.43;;;4.70;;
6665;SDS011;3369;49.906;8.598;2022-10-28T03:18:40;8.10;;;4.97;;
6665;SDS011;3369;49.906;8.598;2022-10-28T03:21:06;5.13;;;4.50;;
6665;SDS011;3369;49.906;8.598;2022-10-28T03:23:31;4.70;;;4.20;;
6665;SDS011;3369;49.906;8.598;2022-10-28T03:25:57;5.43;;;4.70;;
6665;SDS011;3369;49.906;8.598;2022-10-28T03:28:23;4.23;;;3.90;;
6665;SDS011;3369;49.906;8.598;2022-10-28T03:30:48;7.63;;;4.73;;
6665;SDS011;3369;49.906;8.598;2022-10-28T03:33:14;5.80;;;4.87;;
6665;SDS011;3369;49.906;8.598;2022-10-28T03:35:39;6.00;;;4.77;;
6665;SDS011;3369;49.906;8.598;2022-10-28T03:38:05;6.03;;;4.20;;
6665;SDS011;3369;49.906;8.598;2022-10-28T03:40:31;5.03;;;4.10;;
6665;SDS011;3369;49.906;8.598;2022-10-28T03:42:56;6.13;;;4.80;;
6665;SDS011;3369;49.906;8.598;2022-10-28T03:45:22;7.73;;;4.83;;
6665;SDS011;3369;49.906;8.598;2022-10-28T03:47:47;4.73;;;4.33;;
6665;SDS011;3369;49.906;8.598;2022-10-28T03:50:13;5.23;;;4.30;;
6665;SDS011;3369;49.906;8.598;2022-10-28T03:52:39;4.70;;;4.20;;
6665;SDS011;3369;49.906;8.598;2022-10-28T03:55:07;6.27;;;4.13;;
6665;SDS011;3369;49.906;8.598;2022-10-28T03:57:33;5.63;;;4.13;;
6665;SDS011;3369;49.906;8.598;2022-10-28T03:59:59;4.40;;;4.00;;
6665;SDS011;3369;49.906;8.598;2022-10-28T04:02:24;5.87;;;4.20;;
6665;SDS011;3369;49.906;8.598;2022-10-28T04:04:50;5.17;;;4.00;;
6665;SDS011;3369;49.906;8.598;2022-10-28T04:07:16;5.77;;;5.13;;
6665;SDS011;3369;49.906;8.598;2022-10-28T04:09:42;4.27;;;3.93;;
6665;SDS011;3369;49.906;8.598;2022-10-28T04:12:08;4.00;;;3.70;;
6665;SDS011;3369;49.906;8.598;2022-10-28T04:14:34;7.03;;;4.10;;
6665;SDS011;3369;49.906;8.598;2022-10-28T04:17:00;4.27;;;3.90;;
6665;SDS011;3369;49.906;8.598;2022-10-28T04:19:26;4.03;;;3.63;;
6665;SDS011;3369;49.906;8.598;2022-10-28T04:21:51;3.97;;;3.60;;
6665;SDS011;3369;49.906;8.598;2022-10-28T04:24:17;4.37;;;3.97;;
6665;SDS011;3369;49.906;8.598;2022-10-28T04:26:43;4.07;;;3.40;;
6665;SDS011;3369;49.906;8.598;2022-10-28T04:29:08;3.93;;;3.53;;
6665;SDS011;3369;49.906;8.598;2022-10-28T04:31:34;5.47;;;3.60;;
6665;SDS011;3369;49.906;8.598;2022-10-28T04:33:59;5.37;;;3.43;;
6665;SDS011;3369;49.906;8.598;2022-10-28T04:36:25;4.70;;;3.50;;
6665;SDS011;3369;49.906;8.598;2022-10-28T04:38:51;4.80;;;4.10;;
6665;SDS011;3369;49.906;8.598;2022-10-28T04:41:16;5.47;;;3.80;;
6665;SDS011;3369;49.906;8.598;2022-10-28T04:43:42;5.50;;;4.03;;
6665;SDS011;3369;49.906;8.598;2022-10-28T04:46:08;4.30;;;3.80;;
6665;SDS011;3369;49.906;8.598;2022-10-28T04:48:34;5.37;;;4.27;;
6665;SDS011;3369;49.906;8.598;2022-10-28T04:51:00;4.17;;;3.77;;
6665;SDS011;3369;49.906;8.598;2022-10-28T04:53:26;4.07;;;3.67;;
6665;SDS011;3369;49.906;8.598;2022-10-28T04:55:58;4.40;;;4.00;;
6665;SDS011;3369;49.906;8.598;2022-10-28T04:58:24;5.27;;;4.33;;
6665;SDS011;3369;49.906;8.598;2022-10-28T05:00:50;6.57;;;4.93;;
6665;SDS011;3369;49.906;8.598;2022-10-28T05:03:16;6.47;;;5.37;;
6665;SDS011;3369;49.906;8.598;2022-10-28T05:05:41;5.87;;;4.47;;
6665;SDS011;3369;49.906;8.598;2022-10-28T05:08:07;5.33;;;4.83;;
6665;SDS011;3369;49.906;8.598;2022-10-28T05:10:33;5.30;;;4.57;;
6665;SDS011;3369;49.906;8.598;2022-10-28T05:12:58;6.80;;;5.53;;
6665;SDS011;3369;49.906;8.598;2022-10-28T05:15:24;10.03;;;5.80;;
6665;SDS011;3369;49.906;8.598;2022-10-28T05:17:50;10.90;;;5.73;;
6665;SDS011;3369;49.906;8.598;2022-10-28T05:20:17;6.00;;;5.30;;
6665;SDS011;3369;49.906;8.598;2022-10-28T05:22:48;7.30;;;5.67;;
6665;SDS011;3369;49.906;8.598;2022-10-28T05:25:19;8.97;;;5.83;;
6665;SDS011;3369;49.906;8.598;2022-10-28T05:27:45;8.13;;;6.20;;
6665;SDS011;3369;49.906;8.598;2022-10-28T05:30:11;7.33;;;5.60;;
6665;SDS011;3369;49.906;8.598;2022-10-28T05:32:38;10.33;;;5.80;;
6665;SDS011;3369;49.906;8.598;2022-10-28T05:35:03;10.63;;;5.67;;
6665;SDS011;3369;49.906;8.598;2022-10-28T05:37:29;6.57;;;5.37;;
6665;SDS011;3369;49.906;8.598;2022-10-28T05:39:55;7.40;;;5.53;;
6665;SDS011;3369;49.906;8.598;2022-10-28T05:42:21;7.87;;;5.37;;
6665;SDS011;3369;49.906;8.598;2022-10-28T05:44:46;6.73;;;5.73;;
6665;SDS011;3369;49.906;8.598;2022-10-28T05:47:12;8.27;;;6.20;;
6665;SDS011;3369;49.906;8.598;2022-10-28T05:49:37;6.77;;;4.90;;
6665;SDS011;3369;49.906;8.598;2022-10-28T05:52:03;4.93;;;4.17;;
6665;SDS011;3369;49.906;8.598;2022-10-28T05:54:29;5.23;;;4.67;;
6665;SDS011;3369;49.906;8.598;2022-10-28T05:56:54;6.80;;;4.73;;
6665;SDS011;3369;49.906;8.598;2022-10-28T05:59:20;7.93;;;5.03;;
6665;SDS011;3369;49.906;8.598;2022-10-28T06:01:46;5.80;;;4.90;;
6665;SDS011;3369;49.906;8.598;2022-10-28T06:04:11;7.00;;;5.27;;
6665;SDS011;3369;49.906;8.598;2022-10-28T06:06:37;5.50;;;4.47;;
6665;SDS011;3369;49.906;8.598;2022-10-28T06:09:02;6.10;;;3.90;;
6665;SDS011;3369;49.906;8.598;2022-10-28T06:11:28;5.10;;;3.87;;
6665;SDS011;3369;49.906;8.598;2022-10-28T06:13:54;4.10;;;3.80;;
6665;SDS011;3369;49.906;8.598;2022-10-28T06:16:20;5.97;;;4.43;;
6665;SDS011;3369;49.906;8.598;2022-10-28T06:18:45;4.73;;;4.07;;
6665;SDS011;3369;49.906;8.598;2022-10-28T06:21:11;4.23;;;3.83;;
6665;SDS011;3369;49.906;8.598;2022-10-28T06:23:37;5.20;;;3.93;;
6665;SDS011;3369;49.906;8.598;2022-10-28T06:26:03;6.43;;;5.17;;
6665;SDS011;3369;49.906;8.598;2022-10-28T06:28:29;5.33;;;4.07;;
6665;SDS011;3369;49.906;8.598;2022-10-28T06:31:02;5.97;;;4.00;;
6665;SDS011;3369;49.906;8.598;2022-10-28T06:33:28;5.47;;;4.50;;
6665;SDS011;3369;49.906;8.598;2022-10-28T06:35:58;7.10;;;4.37;;
6665;SDS011;3369;49.906;8.598;2022-10-28T06:38:24;4.50;;;4.10;;
6665;SDS011;3369;49.906;8.598;2022-10-28T06:40:51;6.97;;;4.10;;
6665;SDS011;3369;49.906;8.598;2022-10-28T06:43:17;5.87;;;4.10;;
6665;SDS011;3369;49.906;8.598;2022-10-28T06:45:43;5.33;;;4.47;;
6665;SDS011;3369;49.906;8.598;2022-10-28T06:48:10;6.87;;;4.50;;
6665;SDS011;3369;49.906;8.598;2022-10-28T06:50:36;4.50;;;4.00;;
6665;SDS011;3369;49.906;8.598;2022-10-28T06:53:02;4.67;;;4.27;;
6665;SDS011;3369;49.906;8.598;2022-10-28T06:55:28;4.73;;;4.23;;
6665;SDS011;3369;49.906;8.598;2022-10-28T06:57:58;5.77;;;4.40;;
6665;SDS011;3369;49.906;8.598;2022-10-28T07:00:25;5.40;;;4.27;;
6665;SDS011;3369;49.906;8.598;2022-10-28T07:02:51;8.17;;;4.60;;
6665;SDS011;3369;49.906;8.598;2022-10-28T07:05:17;7.60;;;3.93;;
6665;SDS011;3369;49.906;8.598;2022-10-28T07:07:43;5.37;;;4.70;;
6665;SDS011;3369;49.906;8.598;2022-10-28T07:10:09;4.13;;;3.73;;
6665;SDS011;3369;49.906;8.598;2022-10-28T07:12:35;4.40;;;4.00;;
6665;SDS011;3369;49.906;8.598;2022-10-28T07:15:01;4.27;;;3.83;;
6665;SDS011;3369;49.906;8.598;2022-10-28T07:17:27;5.23;;;4.73;;
6665;SDS011;3369;49.906;8.598;2022-10-28T07:19:52;4.87;;;4.37;;
6665;SDS011;3369;49.906;8.598;2022-10-28T07:22:18;8.33;;;4.47;;
6665;SDS011;3369;49.906;8.598;2022-10-28T07:24:43;4.80;;;4.30;;
6665;SDS011;3369;49.906;8.598;2022-10-28T07:27:09;7.27;;;5.30;;
6665;SDS011;3369;49.906;8.598;2022-10-28T07:29:35;5.07;;;4.57;;
6665;SDS011;3369;49.906;8.598;2022-10-28T07:32:00;5.37;;;4.83;;
6665;SDS011;3369;49.906;8.598;2022-10-28T07:34:26;5.87;;;4.30;;
6665;SDS011;3369;49.906;8.598;2022-10-28T07:36:51;4.97;;;4.40;;
6665;SDS011;3369;49.906;8.598;2022-10-28T07:39:18;5.07;;;3.90;;
6665;SDS011;3369;49.906;8.598;2022-10-28T07:41:44;4.53;;;4.03;;
6665;SDS011;3369;49.906;8.598;2022-10-28T07:44:10;4.57;;;4.10;;
6665;SDS011;3369;49.906;8.598;2022-10-28T07:46:36;5.37;;;3.77;;
6665;SDS011;3369;49.906;8.598;2022-10-28T07:49:02;4.30;;;3.90;;
6665;SDS011;3369;49.906;8.598;2022-10-28T07:51:28;6.57;;;4.17;;
6665;SDS011;3369;49.906;8.598;2022-10-28T07:53:55;4.97;;;4.27;;
6665;SDS011;3369;49.906;8.598;2022-10-28T07:56:21;5.20;;;4.70;;
6665;SDS011;3369;49.906;8.598;2022-10-28T07:58:47;5.27;;;4.10;;
6665;SDS011;3369;49.906;8.598;2022-10-28T08:01:15;7.77;;;4.93;;
6665;SDS011;3369;49.906;8.598;2022-10-28T08:03:42;7.63;;;4.47;;
6665;SDS011;3369;49.906;8.598;2022-10-28T08:06:12;4.87;;;4.03;;
6665;SDS011;3369;49.906;8.598;2022-10-28T08:08:41;5.33;;;4.70;;
6665;SDS011;3369;49.906;8.598;2022-10-28T08:11:12;4.80;;;4.20;;
6665;SDS011;3369;49.906;8.598;2022-10-28T08:13:39;6.27;;;4.47;;
6665;SDS011;3369;49.906;8.598;2022-10-28T08:16:05;4.80;;;3.90;;
6665;SDS011;3369;49.906;8.598;2022-10-28T08:18:32;4.77;;;4.20;;
6665;SDS011;3369;49.906;8.598;2022-10-28T08:20:58;5.03;;;4.23;;
6665;SDS011;3369;49.906;8.598;2022-10-28T08:23:24;7.20;;;4.97;;
6665;SDS011;3369;49.906;8.598;2022-10-28T08:25:51;6.00;;;4.87;;
6665;SDS011;3369;49.906;8.598;2022-10-28T08:28:17;8.33;;;6.53;;
6665;SDS011;3369;49.906;8.598;2022-10-28T08:30:43;11.37;;;6.77;;
6665;SDS011;3369;49.906;8.598;2022-10-28T08:33:09;10.77;;;7.53;;
6665;SDS011;3369;49.906;8.598;2022-10-28T08:35:35;13.53;;;7.90;;
6665;SDS011;3369;49.906;8.598;2022-10-28T08:38:01;14.60;;;7.20;;
6665;SDS011;3369;49.906;8.598;2022-10-28T08:40:46;9.10;;;6.13;;
6665;SDS011;3369;49.906;8.598;2022-10-28T08:46:00;7.47;;;6.07;;
6665;SDS011;3369;49.906;8.598;2022-10-28T08:48:40;7.70;;;5.47;;
6665;SDS011;3369;49.906;8.598;2022-10-28T08:52:08;7.90;;;5.47;;
6665;SDS011;3369;49.906;8.598;2022-10-28T08:54:16;7.20;;;5.13;;
6665;SDS011;3369;49.906;8.598;2022-10-28T08:57:04;6.40;;;4.90;;
6665;SDS011;3369;49.906;8.598;2022-10-28T08:59:37;7.70;;;5.17;;
6665;SDS011;3369;49.906;8.598;2022-10-28T09:04:48;7.13;;;4.90;;
6665;SDS011;3369;49.906;8.598;2022-10-28T09:07:35;7.37;;;4.93;;
6665;SDS011;3369;49.906;8.598;2022-10-28T09:10:02;6.33;;;5.30;;
6665;SDS011;3369;49.906;8.598;2022-10-28T09:18:07;4.30;;;3.90;;
6665;SDS011;3369;49.906;8.598;2022-10-28T09:20:46;7.77;;;4.83;;
6665;SDS011;3369;49.906;8.598;2022-10-28T09:31:33;5.00;;;4.47;;
6665;SDS011;3369;49.906;8.598;2022-10-28T09:34:17;7.97;;;5.83;;
6665;SDS011;3369;49.906;8.598;2022-10-28T09:39:24;7.50;;;5.50;;
6665;SDS011;3369;49.906;8.598;2022-10-28T09:41:53;7.20;;;5.70;;
6665;SDS011;3369;49.906;8.598;2022-10-28T09:44:25;5.30;;;4.50;;
6665;SDS011;3369;49.906;8.598;2022-10-28T09:47:11;7.73;;;6.43;;
6665;SDS011;3369;49.906;8.598;2022-10-28T09:49:43;6.97;;;4.97;;
6665;SDS011;3369;49.906;8.598;2022-10-28T09:52:20;10.23;;;4.70;;
6665;SDS011;3369;49.906;8.598;2022-10-28T09:54:52;8.27;;;4.90;;
6665;SDS011;3369;49.906;8.598;2022-10-28T09:57:18;8.43;;;4.80;;
6665;SDS011;3369;49.906;8.598;2022-10-28T09:59:46;5.90;;;4.27;;
6665;SDS011;3369;49.906;8.598;2022-10-28T10:02:28;5.33;;;4.57;;
6665;SDS011;3369;49.906;8.598;2022-10-28T10:04:56;8.37;;;4.90;;
6665;SDS011;3369;49.906;8.598;2022-10-28T10:07:28;9.77;;;5.03;;
6665;SDS011;3369;49.906;8.598;2022-10-28T10:09:59;8.20;;;3.97;;
6665;SDS011;3369;49.906;8.598;2022-10-28T10:12:29;7.30;;;4.53;;
6665;SDS011;3369;49.906;8.598;2022-10-28T10:14:57;5.67;;;4.10;;
6665;SDS011;3369;49.906;8.598;2022-10-28T10:17:24;8.47;;;3.70;;
6665;SDS011;3369;49.906;8.598;2022-10-28T10:22:29;6.60;;;3.20;;
6665;SDS011;3369;49.906;8.598;2022-10-28T10:25:03;8.07;;;3.73;;
6665;SDS011;3369;49.906;8.598;2022-10-28T10:27:52;5.43;;;3.23;;
6665;SDS011;3369;49.906;8.598;2022-10-28T10:30:25;3.83;;;2.87;;
6665;SDS011;3369;49.906;8.598;2022-10-28T10:32:54;9.17;;;3.83;;
6665;SDS011;3369;49.906;8.598;2022-10-28T10:35:28;8.63;;;3.50;;
6665;SDS011;3369;49.906;8.598;2022-10-28T10:37:57;6.70;;;3.57;;
6665;SDS011;3369;49.906;8.598;2022-10-28T10:40:26;6.83;;;3.23;;
6665;SDS011;3369;49.906;8.598;2022-10-28T10:43:14;7.67;;;3.87;;
6665;SDS011;3369;49.906;8.598;2022-10-28T10:48:41;12.50;;;3.03;;
6665;SDS011;3369;49.906;8.598;2022-10-28T10:51:11;7.63;;;3.47;;
6665;SDS011;3369;49.906;8.598;2022-10-28T10:53:48;6.40;;;3.43;;
6665;SDS011;3369;49.906;8.598;2022-10-28T10:56:25;7.73;;;3.13;;
6665;SDS011;3369;49.906;8.598;2022-10-28T10:58:54;8.13;;;3.10;;
6665;SDS011;3369;49.906;8.598;2022-10-28T11:01:23;7.13;;;3.37;;
6665;SDS011;3369;49.906;8.598;2022-10-28T11:04:01;6.70;;;3.03;;
6665;SDS011;3369;49.906;8.598;2022-10-28T11:06:31;11.07;;;3.00;;
6665;SDS011;3369;49.906;8.598;2022-10-28T11:09:02;7.57;;;2.93;;
6665;SDS011;3369;49.906;8.598;2022-10-28T11:11:33;8.07;;;3.50;;
6665;SDS011;3369;49.906;8.598;2022-10-28T11:14:02;7.03;;;3.20;;
6665;SDS011;3369;49.906;8.598;2022-10-28T11:16:51;12.87;;;3.20;;
6665;SDS011;3369;49.906;8.598;2022-10-28T11:19:19;10.73;;;3.03;;
6665;SDS011;3369;49.906;8.598;2022-10-28T11:29:50;9.23;;;3.03;;
6665;SDS011;3369;49.906;8.598;2022-10-28T11:37:51;7.80;;;3.03;;
6665;SDS011;3369;49.906;8.598;2022-10-28T11:40:41;5.30;;;2.20;;
6665;SDS011;3369;49.906;8.598;2022-10-28T11:43:33;9.93;;;2.80;;
6665;SDS011;3369;49.906;8.598;2022-10-28T11:51:14;7.60;;;2.67;;
6665;SDS011;3369;49.906;8.598;2022-10-28T11:57:12;6.67;;;2.97;;
6665;SDS011;3369;49.906;8.598;2022-10-28T12:05:32;9.90;;;2.80;;
6665;SDS011;3369;49.906;8.598;2022-10-28T12:11:29;7.23;;;2.90;;
6665;SDS011;3369;49.906;8.598;2022-10-28T12:16:57;9.67;;;3.20;;
6665;SDS011;3369;49.906;8.598;2022-10-28T12:19:36;4.83;;;3.37;;
6665;SDS011;3369;49.906;8.598;2022-10-28T12:22:13;6.00;;;2.27;;
6665;SDS011;3369;49.906;8.598;2022-10-28T12:24:48;5.93;;;2.33;;
6665;SDS011;3369;49.906;8.598;2022-10-28T12:27:21;6.80;;;2.63;;
6665;SDS011;3369;49.906;8.598;2022-10-28T12:30:03;7.90;;;3.20;;
6665;SDS011;3369;49.906;8.598;2022-10-28T12:32:39;5.30;;;2.23;;
6665;SDS011;3369;49.906;8.598;2022-10-28T12:35:13;7.67;;;2.50;;
6665;SDS011;3369;49.906;8.598;2022-10-28T12:37:45;8.40;;;2.57;;
6665;SDS011;3369;49.906;8.598;2022-10-28T12:40:34;8.87;;;2.80;;
6665;SDS011;3369;49.906;8.598;2022-10-28T12:43:22;5.80;;;2.67;;
6665;SDS011;3369;49.906;8.598;2022-10-28T12:46:13;10.67;;;2.93;;
6665;SDS011;3369;49.906;8.598;2022-10-28T12:48:55;5.73;;;2.67;;
6665;SDS011;3369;49.906;8.598;2022-10-28T12:51:29;4.60;;;2.60;;
6665;SDS011;3369;49.906;8.598;2022-10-28T12:56:51;5.17;;;2.70;;
6665;SDS011;3369;49.906;8.598;2022-10-28T12:59:38;7.17;;;2.80;;
6665;SDS011;3369;49.906;8.598;2022-10-28T13:02:13;7.37;;;2.80;;
6665;SDS011;3369;49.906;8.598;2022-10-28T13:04:43;8.47;;;2.50;;
6665;SDS011;3369;49.906;8.598;2022-10-28T13:09:43;4.57;;;2.20;;
6665;SDS011;3369;49.906;8.598;2022-10-28T13:21:25;9.37;;;2.77;;
6665;SDS011;3369;49.906;8.598;2022-10-28T13:26:52;5.33;;;2.40;;
6665;SDS011;3369;49.906;8.598;2022-10-28T13:29:21;9.43;;;2.60;;
6665;SDS011;3369;49.906;8.598;2022-10-28T13:31:49;5.80;;;2.50;;
6665;SDS011;3369;49.906;8.598;2022-10-28T13:34:16;7.63;;;2.60;;
6665;SDS011;3369;49.906;8.598;2022-10-28T13:36:45;6.80;;;2.40;;
6665;SDS011;3369;49.906;8.598;2022-10-28T13:39:27;6.63;;;2.70;;
6665;SDS011;3369;49.906;8.598;2022-10-28T13:44:58;4.53;;;2.23;;
6665;SDS011;3369;49.906;8.598;2022-10-28T13:47:36;8.53;;;2.53;;
6665;SDS011;3369;49.906;8.598;2022-10-28T13:52:34;6.93;;;2.50;;
6665;SDS011;3369;49.906;8.598;2022-10-28T13:57:38;9.17;;;2.80;;
6665;SDS011;3369;49.906;8.598;2022-10-28T14:02:49;6.63;;;2.57;;
6665;SDS011;3369;49.906;8.598;2022-10-28T14:05:22;7.87;;;2.30;;
6665;SDS011;3369;49.906;8.598;2022-10-28T14:08:42;4.17;;;2.23;;
6665;SDS011;3369;49.906;8.598;2022-10-28T14:10:55;4.83;;;1.97;;
6665;SDS011;3369;49.906;8.598;2022-10-28T14:13:26;11.93;;;2.63;;
6665;SDS011;3369;49.906;8.598;2022-10-28T14:18:40;6.43;;;2.60;;
6665;SDS011;3369;49.906;8.598;2022-10-28T14:21:07;9.63;;;2.57;;
6665;SDS011;3369;49.906;8.598;2022-10-28T14:26:01;8.07;;;2.53;;
6665;SDS011;3369;49.906;8.598;2022-10-28T14:54:53;3.77;;;2.23;;
6665;SDS011;3369;49.906;8.598;2022-10-28T14:57:27;5.90;;;2.50;;
6665;SDS011;3369;49.906;8.598;2022-10-28T14:59:59;7.13;;;2.70;;
6665;SDS011;3369;49.906;8.598;2022-10-28T15:02:28;8.13;;;2.50;;
6665;SDS011;3369;49.906;8.598;2022-10-28T15:05:00;7.67;;;2.67;;
6665;SDS011;3369;49.906;8.598;2022-10-28T15:07:44;5.47;;;2.57;;
6665;SDS011;3369;49.906;8.598;2022-10-28T15:12:57;6.13;;;2.13;;
6665;SDS011;3369;49.906;8.598;2022-10-28T15:15:28;8.07;;;2.40;;
6665;SDS011;3369;49.906;8.598;2022-10-28T15:17:56;7.80;;;3.10;;
6665;SDS011;3369;49.906;8.598;2022-10-28T15:20:23;3.53;;;2.17;;
6665;SDS011;3369;49.906;8.598;2022-10-28T15:22:51;6.57;;;2.70;;
6665;SDS011;3369;49.906;8.598;2022-10-28T15:25:18;4.80;;;2.50;;
6665;SDS011;3369;49.906;8.598;2022-10-28T15:27:46;8.93;;;3.23;;
6665;SDS011;3369;49.906;8.598;2022-10-28T15:30:16;6.30;;;2.47;;
6665;SDS011;3369;49.906;8.598;2022-10-28T15:32:43;11.33;;;3.30;;
6665;SDS011;3369;49.906;8.598;2022-10-28T15:37:54;2.83;;;2.20;;
6665;SDS011;3369;49.906;8.598;2022-10-28T15:40:25;5.53;;;2.30;;
6665;SDS011;3369;49.906;8.598;2022-10-28T15:43:02;8.50;;;2.67;;
6665;SDS011;3369;49.906;8.598;2022-10-28T15:45:33;9.60;;;2.93;;
6665;SDS011;3369;49.906;8.598;2022-10-28T15:48:00;3.20;;;2.30;;
6665;SDS011;3369;49.906;8.598;2022-10-28T15:50:34;8.37;;;2.93;;
6665;SDS011;3369;49.906;8.598;2022-10-28T15:55:35;8.50;;;2.70;;
6665;SDS011;3369;49.906;8.598;2022-10-28T15:58:27;3.43;;;2.40;;
6665;SDS011;3369;49.906;8.598;2022-10-28T16:00:55;9.97;;;2.53;;
6665;SDS011;3369;49.906;8.598;2022-10-28T16:05:53;7.20;;;3.13;;
6665;SDS011;3369;49.906;8.598;2022-10-28T16:08:29;7.90;;;3.70;;
6665;SDS011;3369;49.906;8.598;2022-10-28T16:10:57;6.20;;;3.10;;
6665;SDS011;3369;49.906;8.598;2022-10-28T16:13:35;6.27;;;2.93;;
6665;SDS011;3369;49.906;8.598;2022-10-28T16:16:09;7.90;;;2.73;;
6665;SDS011;3369;49.906;8.598;2022-10-28T16:19:17;5.63;;;2.70;;
6665;SDS011;3369;49.906;8.598;2022-10-28T16:21:33;8.43;;;3.20;;
6665;SDS011;3369;49.906;8.598;2022-10-28T16:24:01;5.13;;;2.87;;
6665;SDS011;3369;49.906;8.598;2022-10-28T16:26:28;3.57;;;2.50;;
6665;SDS011;3369;49.906;8.598;2022-10-28T16:28:55;8.33;;;3.40;;
6665;SDS011;3369;49.906;8.598;2022-10-28T16:31:22;9.67;;;3.30;;
6665;SDS011;3369;49.906;8.598;2022-10-28T16:33:51;7.17;;;3.20;;
6665;SDS011;3369;49.906;8.598;2022-10-28T16:36:17;9.23;;;2.87;;
6665;SDS011;3369;49.906;8.598;2022-10-28T16:38:43;5.20;;;2.47;;
6665;SDS011;3369;49.906;8.598;2022-10-28T16:41:15;8.70;;;2.77;;
6665;SDS011;3369;49.906;8.598;2022-10-28T16:43:42;7.97;;;3.03;;
6665;SDS011;3369;49.906;8.598;2022-10-28T16:46:12;6.47;;;2.80;;
6665;SDS011;3369;49.906;8.598;2022-10-28T16:48:38;6.70;;;3.13;;
6665;SDS011;3369;49.906;8.598;2022-10-28T16:51:05;5.80;;;3.27;;
6665;SDS011;3369;49.906;8.598;2022-10-28T16:53:41;5.60;;;3.33;;
6665;SDS011;3369;49.906;8.598;2022-10-28T16:56:11;8.60;;;3.40;;
6665;SDS011;3369;49.906;8.598;2022-10-28T16:58:38;9.43;;;2.87;;
6665;SDS011;3369;49.906;8.598;2022-10-28T17:01:06;8.13;;;3.30;;
6665;SDS011;3369;49.906;8.598;2022-10-28T17:03:32;7.43;;;3.10;;
6665;SDS011;3369;49.906;8.598;2022-10-28T17:05:58;7.23;;;3.17;;
6665;SDS011;3369;49.906;8.598;2022-10-28T17:08:23;5.33;;;2.87;;
6665;SDS011;3369;49.906;8.598;2022-10-28T17:10:49;11.10;;;3.20;;
6665;SDS011;3369;49.906;8.598;2022-10-28T17:13:15;10.20;;;3.10;;
6665;SDS011;3369;49.906;8.598;2022-10-28T17:15:41;5.87;;;2.90;;
6665;SDS011;3369;49.906;8.598;2022-10-28T17:18:08;7.50;;;3.30;;
6665;SDS011;3369;49.906;8.598;2022-10-28T17:20:35;7.37;;;2.67;;
6665;SDS011;3369;49.906;8.598;2022-10-28T17:23:02;8.80;;;3.03;;
6665;SDS011;3369;49.906;8.598;2022-10-28T17:25:29;10.43;;;2.93;;
6665;SDS011;3369;49.906;8.598;2022-10-28T17:27:55;6.90;;;2.90;;
6665;SDS011;3369;49.906;8.598;2022-10-28T17:30:20;9.17;;;3.23;;
6665;SDS011;3369;49.906;8.598;2022-10-28T17:32:50;7.57;;;3.00;;
6665;SDS011;3369;49.906;8.598;2022-10-28T17:35:18;10.20;;;3.00;;
6665;SDS011;3369;49.906;8.598;2022-10-28T17:37:45;7.03;;;3.00;;
6665;SDS011;3369;49.906;8.598;2022-10-28T17:40:10;9.03;;;3.47;;
6665;SDS011;3369;49.906;8.598;2022-10-28T17:42:36;8.93;;;3.73;;
6665;SDS011;3369;49.906;8.598;2022-10-28T17:45:03;5.30;;;2.70;;
6665;SDS011;3369;49.906;8.598;2022-10-28T17:47:33;5.93;;;3.20;;
6665;SDS011;3369;49.906;8.598;2022-10-28T17:49:59;8.93;;;3.83;;
6665;SDS011;3369;49.906;8.598;2022-10-28T17:52:25;10.23;;;3.17;;
6665;SDS011;3369;49.906;8.598;2022-10-28T17:54:51;6.67;;;2.60;;
6665;SDS011;3369;49.906;8.598;2022-10-28T17:57:17;8.10;;;2.57;;
6665;SDS011;3369;49.906;8.598;2022-10-28T17:59:43;5.60;;;2.93;;
6665;SDS011;3369;49.906;8.598;2022-10-28T18:02:11;6.10;;;2.63;;
6665;SDS011;3369;49.906;8.598;2022-10-28T18:04:38;5.07;;;2.60;;
6665;SDS011;3369;49.906;8.598;2022-10-28T18:07:04;6.03;;;3.37;;
6665;SDS011;3369;49.906;8.598;2022-10-28T18:09:29;4.40;;;2.70;;
6665;SDS011;3369;49.906;8.598;2022-10-28T18:11:56;6.73;;;3.23;;
6665;SDS011;3369;49.906;8.598;2022-10-28T18:14:23;8.77;;;3.50;;
6665;SDS011;3369;49.906;8.598;2022-10-28T18:16:49;10.00;;;3.37;;
6665;SDS011;3369;49.906;8.598;2022-10-28T18:19:15;9.43;;;3.47;;
6665;SDS011;3369;49.906;8.598;2022-10-28T18:21:40;9.77;;;3.50;;
6665;SDS011;3369;49.906;8.598;2022-10-28T18:24:08;7.83;;;3.27;;